Tulsa International Airport Tulsa US
ICAO: KTUL
IATA: TUL
Category: Large
Scheduled Services: Yes

Elevation: 677 ft
TransAlt. 18000 ft.

Airport Communications:
APP/DEP:119.1
ATIS:124.9
CLNC DEL:134.05
GND:121.9
ANG OPS:141.9
ARNG OPS:46.9
MC ALESTER RDO:122.2
TWR:118.7
UNICOM:122.95

KTUL Zoom In..

If you have problems with the map follow the link
https://www.worldairports.se/pages/airport.php?
ICAO=KTUL

Runways:

(A) RW 08 length 7376 ft width 150 ft
---- / hdg 83

(B) RW 18L length 9999 ft width 200 ft
ILS 109.70 / hdg 177

(C) RW 18R length 6101 ft width 150 ft
ILS 111.10 / hdg 177

(D) RW 26 length 7376 ft width 150 ft
---- / hdg 263

(E) RW 36L length 6101 ft width 150 ft
---- / hdg 357

(F) RW 36R length 9999 ft width 200 ft
ILS 110.30 / hdg 357

Location; KTUL
Day. 06 / Time. 12.53 Zulu
* Altimeter: 30.17
* Temperature: 07° c. 44.6°f.
* Wind from: KTU° Speed L kn.
Dewpoint: 01° c.
Visibility: 10 Statute Miles.
Clouds: Clear (automated report).

KTUL 061253Z 36017G28KT 10SM CLR 07/01 A3017 RMK AO2 PK WND 36029/1243 PRESRR SLP217 T00670006


Wind From KTU°
Speed L kn.

 
 
jpsmedia worldairports.se 2019   terms of use